sensor_id;sensor_type;location;lat;lon;timestamp;P1;durP1;ratioP1;P2;durP2;ratioP2
58302;SDS011;44109;52.398;7.024;2023-05-10T00:00:41;4.28;;;2.13;;
58302;SDS011;44109;52.398;7.024;2023-05-10T00:03:09;4.43;;;2.47;;
58302;SDS011;44109;52.398;7.024;2023-05-10T00:05:36;4.82;;;2.75;;
58302;SDS011;44109;52.398;7.024;2023-05-10T00:08:04;4.03;;;2.15;;
58302;SDS011;44109;52.398;7.024;2023-05-10T00:10:31;4.95;;;2.50;;
58302;SDS011;44109;52.398;7.024;2023-05-10T00:12:59;5.30;;;2.78;;
58302;SDS011;44109;52.398;7.024;2023-05-10T00:15:28;4.72;;;2.22;;
58302;SDS011;44109;52.398;7.024;2023-05-10T00:17:56;5.03;;;2.13;;
58302;SDS011;44109;52.398;7.024;2023-05-10T00:20:24;4.25;;;2.13;;
58302;SDS011;44109;52.398;7.024;2023-05-10T00:22:52;4.05;;;2.38;;
58302;SDS011;44109;52.398;7.024;2023-05-10T00:25:19;3.85;;;1.90;;
58302;SDS011;44109;52.398;7.024;2023-05-10T00:27:47;4.35;;;2.65;;
58302;SDS011;44109;52.398;7.024;2023-05-10T00:30:15;3.58;;;2.28;;
58302;SDS011;44109;52.398;7.024;2023-05-10T00:32:45;5.35;;;3.17;;
58302;SDS011;44109;52.398;7.024;2023-05-10T00:35:13;4.40;;;3.13;;
58302;SDS011;44109;52.398;7.024;2023-05-10T00:37:41;3.50;;;2.35;;
58302;SDS011;44109;52.398;7.024;2023-05-10T00:40:09;6.10;;;3.17;;
58302;SDS011;44109;52.398;7.024;2023-05-10T00:42:38;4.88;;;3.50;;
58302;SDS011;44109;52.398;7.024;2023-05-10T00:45:06;3.33;;;2.25;;
58302;SDS011;44109;52.398;7.024;2023-05-10T00:47:34;4.93;;;3.08;;
58302;SDS011;44109;52.398;7.024;2023-05-10T00:50:04;6.35;;;3.22;;
58302;SDS011;44109;52.398;7.024;2023-05-10T00:52:33;7.20;;;3.97;;
58302;SDS011;44109;52.398;7.024;2023-05-10T00:55:01;8.35;;;4.72;;
58302;SDS011;44109;52.398;7.024;2023-05-10T00:57:29;7.32;;;4.28;;
58302;SDS011;44109;52.398;7.024;2023-05-10T00:59:57;6.38;;;4.05;;
58302;SDS011;44109;52.398;7.024;2023-05-10T01:02:26;8.82;;;5.00;;
58302;SDS011;44109;52.398;7.024;2023-05-10T01:04:54;5.93;;;3.63;;
58302;SDS011;44109;52.398;7.024;2023-05-10T01:07:23;7.70;;;3.20;;
58302;SDS011;44109;52.398;7.024;2023-05-10T01:09:51;6.57;;;3.45;;
58302;SDS011;44109;52.398;7.024;2023-05-10T01:12:19;7.82;;;4.57;;
58302;SDS011;44109;52.398;7.024;2023-05-10T01:14:47;7.80;;;4.28;;
58302;SDS011;44109;52.398;7.024;2023-05-10T01:17:15;6.20;;;3.60;;
58302;SDS011;44109;52.398;7.024;2023-05-10T01:19:43;6.63;;;3.55;;
58302;SDS011;44109;52.398;7.024;2023-05-10T01:22:16;6.40;;;3.58;;
58302;SDS011;44109;52.398;7.024;2023-05-10T01:25:23;6.30;;;3.47;;
58302;SDS011;44109;52.398;7.024;2023-05-10T01:31:28;9.25;;;4.75;;
58302;SDS011;44109;52.398;7.024;2023-05-10T01:34:19;8.65;;;4.63;;
58302;SDS011;44109;52.398;7.024;2023-05-10T01:36:54;6.55;;;3.75;;
58302;SDS011;44109;52.398;7.024;2023-05-10T01:39:38;8.60;;;4.78;;
58302;SDS011;44109;52.398;7.024;2023-05-10T01:42:14;7.70;;;4.40;;
58302;SDS011;44109;52.398;7.024;2023-05-10T01:44:49;10.15;;;4.47;;
58302;SDS011;44109;52.398;7.024;2023-05-10T01:47:30;9.32;;;5.30;;
58302;SDS011;44109;52.398;7.024;2023-05-10T01:50:06;9.02;;;4.85;;
58302;SDS011;44109;52.398;7.024;2023-05-10T01:52:42;7.32;;;4.18;;
58302;SDS011;44109;52.398;7.024;2023-05-10T01:55:18;8.55;;;4.43;;
58302;SDS011;44109;52.398;7.024;2023-05-10T01:57:51;8.32;;;4.43;;
58302;SDS011;44109;52.398;7.024;2023-05-10T02:00:28;7.68;;;4.80;;
58302;SDS011;44109;52.398;7.024;2023-05-10T02:02:59;7.38;;;4.13;;
58302;SDS011;44109;52.398;7.024;2023-05-10T02:05:32;12.82;;;4.70;;
58302;SDS011;44109;52.398;7.024;2023-05-10T02:08:02;8.32;;;4.65;;
58302;SDS011;44109;52.398;7.024;2023-05-10T02:10:34;8.57;;;4.72;;
58302;SDS011;44109;52.398;7.024;2023-05-10T02:13:03;11.65;;;6.20;;
58302;SDS011;44109;52.398;7.024;2023-05-10T02:15:33;10.10;;;4.85;;
58302;SDS011;44109;52.398;7.024;2023-05-10T02:18:05;11.00;;;5.75;;
58302;SDS011;44109;52.398;7.024;2023-05-10T02:20:36;9.82;;;4.60;;
58302;SDS011;44109;52.398;7.024;2023-05-10T02:23:05;6.65;;;3.60;;
58302;SDS011;44109;52.398;7.024;2023-05-10T02:25:36;11.05;;;5.15;;
58302;SDS011;44109;52.398;7.024;2023-05-10T02:28:06;8.55;;;4.15;;
58302;SDS011;44109;52.398;7.024;2023-05-10T02:30:37;8.82;;;4.78;;
58302;SDS011;44109;52.398;7.024;2023-05-10T02:33:07;8.07;;;4.07;;
58302;SDS011;44109;52.398;7.024;2023-05-10T02:35:35;9.07;;;4.88;;
58302;SDS011;44109;52.398;7.024;2023-05-10T02:38:05;12.50;;;5.50;;
58302;SDS011;44109;52.398;7.024;2023-05-10T02:40:35;11.00;;;4.97;;
58302;SDS011;44109;52.398;7.024;2023-05-10T02:43:05;10.32;;;4.63;;
58302;SDS011;44109;52.398;7.024;2023-05-10T02:45:38;8.38;;;3.92;;
58302;SDS011;44109;52.398;7.024;2023-05-10T02:48:11;8.48;;;4.45;;
58302;SDS011;44109;52.398;7.024;2023-05-10T02:50:38;10.82;;;4.75;;
58302;SDS011;44109;52.398;7.024;2023-05-10T02:53:15;11.48;;;5.68;;
58302;SDS011;44109;52.398;7.024;2023-05-10T02:55:50;10.63;;;5.00;;
58302;SDS011;44109;52.398;7.024;2023-05-10T02:58:24;13.65;;;5.38;;
58302;SDS011;44109;52.398;7.024;2023-05-10T03:00:52;12.55;;;5.40;;
58302;SDS011;44109;52.398;7.024;2023-05-10T03:03:21;12.85;;;5.78;;
58302;SDS011;44109;52.398;7.024;2023-05-10T03:05:49;13.80;;;5.93;;
58302;SDS011;44109;52.398;7.024;2023-05-10T03:08:16;13.38;;;5.72;;
58302;SDS011;44109;52.398;7.024;2023-05-10T03:10:47;11.52;;;5.13;;
58302;SDS011;44109;52.398;7.024;2023-05-10T03:13:44;12.68;;;4.82;;
58302;SDS011;44109;52.398;7.024;2023-05-10T03:16:29;13.52;;;5.00;;
58302;SDS011;44109;52.398;7.024;2023-05-10T03:19:11;13.13;;;5.50;;
58302;SDS011;44109;52.398;7.024;2023-05-10T03:21:47;8.77;;;4.60;;
58302;SDS011;44109;52.398;7.024;2023-05-10T03:24:20;18.97;;;5.87;;
58302;SDS011;44109;52.398;7.024;2023-05-10T03:26:54;10.13;;;4.60;;
58302;SDS011;44109;52.398;7.024;2023-05-10T03:29:28;10.48;;;5.03;;
58302;SDS011;44109;52.398;7.024;2023-05-10T03:31:58;10.93;;;5.95;;
58302;SDS011;44109;52.398;7.024;2023-05-10T03:34:27;11.38;;;5.45;;
58302;SDS011;44109;52.398;7.024;2023-05-10T03:36:57;14.35;;;6.13;;
58302;SDS011;44109;52.398;7.024;2023-05-10T03:39:25;13.85;;;6.70;;
58302;SDS011;44109;52.398;7.024;2023-05-10T03:41:53;12.65;;;5.82;;
58302;SDS011;44109;52.398;7.024;2023-05-10T03:44:20;14.38;;;7.43;;
58302;SDS011;44109;52.398;7.024;2023-05-10T03:46:48;12.40;;;5.97;;
58302;SDS011;44109;52.398;7.024;2023-05-10T03:49:16;13.55;;;6.88;;
58302;SDS011;44109;52.398;7.024;2023-05-10T03:51:45;15.98;;;6.43;;
58302;SDS011;44109;52.398;7.024;2023-05-10T03:54:12;14.82;;;6.43;;
58302;SDS011;44109;52.398;7.024;2023-05-10T03:56:40;22.40;;;7.65;;
58302;SDS011;44109;52.398;7.024;2023-05-10T03:59:08;12.98;;;6.05;;
58302;SDS011;44109;52.398;7.024;2023-05-10T04:01:35;9.88;;;5.65;;
58302;SDS011;44109;52.398;7.024;2023-05-10T04:04:03;11.68;;;6.25;;
58302;SDS011;44109;52.398;7.024;2023-05-10T04:06:31;11.35;;;5.28;;
58302;SDS011;44109;52.398;7.024;2023-05-10T04:09:00;63.63;;;60.58;;
58302;SDS011;44109;52.398;7.024;2023-05-10T04:11:30;16.20;;;8.48;;
58302;SDS011;44109;52.398;7.024;2023-05-10T04:13:57;16.15;;;6.85;;
58302;SDS011;44109;52.398;7.024;2023-05-10T04:16:25;11.45;;;5.72;;
58302;SDS011;44109;52.398;7.024;2023-05-10T04:18:52;12.38;;;5.65;;
58302;SDS011;44109;52.398;7.024;2023-05-10T04:21:20;13.60;;;5.65;;
58302;SDS011;44109;52.398;7.024;2023-05-10T04:23:48;14.98;;;5.95;;
58302;SDS011;44109;52.398;7.024;2023-05-10T04:26:17;19.05;;;6.72;;
58302;SDS011;44109;52.398;7.024;2023-05-10T04:28:44;20.73;;;7.25;;
58302;SDS011;44109;52.398;7.024;2023-05-10T04:31:12;14.57;;;5.78;;
58302;SDS011;44109;52.398;7.024;2023-05-10T04:33:39;18.80;;;7.38;;
58302;SDS011;44109;52.398;7.024;2023-05-10T04:36:07;22.80;;;7.95;;
58302;SDS011;44109;52.398;7.024;2023-05-10T04:38:35;21.35;;;8.18;;
58302;SDS011;44109;52.398;7.024;2023-05-10T04:41:03;15.02;;;5.97;;
58302;SDS011;44109;52.398;7.024;2023-05-10T04:43:34;20.58;;;7.90;;
58302;SDS011;44109;52.398;7.024;2023-05-10T04:46:02;19.55;;;8.23;;
58302;SDS011;44109;52.398;7.024;2023-05-10T04:48:30;25.48;;;8.93;;
58302;SDS011;44109;52.398;7.024;2023-05-10T04:50:58;15.93;;;7.63;;
58302;SDS011;44109;52.398;7.024;2023-05-10T04:53:26;19.58;;;8.38;;
58302;SDS011;44109;52.398;7.024;2023-05-10T04:55:53;19.45;;;7.45;;
58302;SDS011;44109;52.398;7.024;2023-05-10T04:58:21;20.27;;;6.90;;
58302;SDS011;44109;52.398;7.024;2023-05-10T05:00:50;17.92;;;7.95;;
58302;SDS011;44109;52.398;7.024;2023-05-10T05:03:18;20.70;;;8.80;;
58302;SDS011;44109;52.398;7.024;2023-05-10T05:05:45;24.77;;;7.90;;
58302;SDS011;44109;52.398;7.024;2023-05-10T05:08:13;16.63;;;7.43;;
58302;SDS011;44109;52.398;7.024;2023-05-10T05:10:41;23.27;;;8.35;;
58302;SDS011;44109;52.398;7.024;2023-05-10T05:13:08;13.55;;;5.45;;
58302;SDS011;44109;52.398;7.024;2023-05-10T05:15:36;23.10;;;9.98;;
58302;SDS011;44109;52.398;7.024;2023-05-10T05:18:05;17.30;;;8.35;;
58302;SDS011;44109;52.398;7.024;2023-05-10T05:20:33;21.75;;;9.55;;
58302;SDS011;44109;52.398;7.024;2023-05-10T05:23:00;18.42;;;12.25;;
58302;SDS011;44109;52.398;7.024;2023-05-10T05:25:28;20.77;;;12.13;;
58302;SDS011;44109;52.398;7.024;2023-05-10T05:27:55;26.58;;;16.67;;
58302;SDS011;44109;52.398;7.024;2023-05-10T05:30:23;21.50;;;15.20;;
58302;SDS011;44109;52.398;7.024;2023-05-10T05:32:51;25.83;;;19.85;;
58302;SDS011;44109;52.398;7.024;2023-05-10T05:35:20;20.80;;;15.43;;
58302;SDS011;44109;52.398;7.024;2023-05-10T05:37:47;23.70;;;14.77;;
58302;SDS011;44109;52.398;7.024;2023-05-10T05:40:15;26.25;;;20.23;;
58302;SDS011;44109;52.398;7.024;2023-05-10T05:42:42;36.47;;;33.08;;
58302;SDS011;44109;52.398;7.024;2023-05-10T05:45:10;43.78;;;40.53;;
58302;SDS011;44109;52.398;7.024;2023-05-10T05:47:39;46.60;;;43.03;;
58302;SDS011;44109;52.398;7.024;2023-05-10T05:50:07;59.28;;;54.88;;
58302;SDS011;44109;52.398;7.024;2023-05-10T05:52:37;52.47;;;48.75;;
58302;SDS011;44109;52.398;7.024;2023-05-10T05:55:05;55.80;;;51.83;;
58302;SDS011;44109;52.398;7.024;2023-05-10T05:57:34;61.33;;;57.15;;
58302;SDS011;44109;52.398;7.024;2023-05-10T06:00:02;60.63;;;55.42;;
58302;SDS011;44109;52.398;7.024;2023-05-10T06:02:30;59.65;;;54.10;;
58302;SDS011;44109;52.398;7.024;2023-05-10T06:04:58;51.58;;;47.80;;
58302;SDS011;44109;52.398;7.024;2023-05-10T06:07:26;54.65;;;50.17;;
58302;SDS011;44109;52.398;7.024;2023-05-10T06:09:55;65.90;;;59.95;;
58302;SDS011;44109;52.398;7.024;2023-05-10T06:12:22;58.83;;;54.42;;
58302;SDS011;44109;52.398;7.024;2023-05-10T06:14:50;57.28;;;52.65;;
58302;SDS011;44109;52.398;7.024;2023-05-10T06:17:17;60.80;;;55.15;;
58302;SDS011;44109;52.398;7.024;2023-05-10T06:19:45;60.22;;;54.97;;
58302;SDS011;44109;52.398;7.024;2023-05-10T06:22:13;60.30;;;55.05;;
58302;SDS011;44109;52.398;7.024;2023-05-10T06:24:40;65.00;;;59.95;;
58302;SDS011;44109;52.398;7.024;2023-05-10T06:27:10;68.63;;;62.95;;
58302;SDS011;44109;52.398;7.024;2023-05-10T06:29:38;76.68;;;69.88;;
58302;SDS011;44109;52.398;7.024;2023-05-10T06:32:05;75.57;;;70.05;;
58302;SDS011;44109;52.398;7.024;2023-05-10T06:34:33;65.18;;;59.83;;
58302;SDS011;44109;52.398;7.024;2023-05-10T06:37:01;74.18;;;68.10;;
58302;SDS011;44109;52.398;7.024;2023-05-10T06:39:29;70.03;;;64.80;;
58302;SDS011;44109;52.398;7.024;2023-05-10T06:41:56;71.63;;;65.72;;
58302;SDS011;44109;52.398;7.024;2023-05-10T06:44:25;64.25;;;58.70;;
58302;SDS011;44109;52.398;7.024;2023-05-10T06:46:54;69.25;;;63.65;;
58302;SDS011;44109;52.398;7.024;2023-05-10T06:49:21;79.35;;;72.43;;
58302;SDS011;44109;52.398;7.024;2023-05-10T06:51:49;77.85;;;71.05;;
58302;SDS011;44109;52.398;7.024;2023-05-10T06:54:17;78.60;;;72.63;;
58302;SDS011;44109;52.398;7.024;2023-05-10T06:56:45;78.68;;;72.47;;
58302;SDS011;44109;52.398;7.024;2023-05-10T06:59:12;85.90;;;79.20;;
58302;SDS011;44109;52.398;7.024;2023-05-10T07:01:42;81.63;;;75.55;;
58302;SDS011;44109;52.398;7.024;2023-05-10T07:04:09;77.90;;;71.80;;
58302;SDS011;44109;52.398;7.024;2023-05-10T07:06:37;79.25;;;73.15;;
58302;SDS011;44109;52.398;7.024;2023-05-10T07:09:05;81.68;;;75.55;;
58302;SDS011;44109;52.398;7.024;2023-05-10T07:11:33;85.30;;;79.05;;
58302;SDS011;44109;52.398;7.024;2023-05-10T07:14:01;83.15;;;77.43;;
58302;SDS011;44109;52.398;7.024;2023-05-10T07:16:28;82.13;;;75.90;;
58302;SDS011;44109;52.398;7.024;2023-05-10T07:18:57;82.82;;;77.28;;
58302;SDS011;44109;52.398;7.024;2023-05-10T07:21:25;81.43;;;74.43;;
58302;SDS011;44109;52.398;7.024;2023-05-10T07:23:54;82.80;;;77.03;;
58302;SDS011;44109;52.398;7.024;2023-05-10T07:26:21;86.75;;;79.97;;
58302;SDS011;44109;52.398;7.024;2023-05-10T07:28:49;81.28;;;75.40;;
58302;SDS011;44109;52.398;7.024;2023-05-10T07:31:17;81.07;;;75.18;;
58302;SDS011;44109;52.398;7.024;2023-05-10T07:33:45;78.70;;;73.95;;
58302;SDS011;44109;52.398;7.024;2023-05-10T07:36:14;77.25;;;71.65;;
58302;SDS011;44109;52.398;7.024;2023-05-10T07:38:42;75.45;;;70.00;;
58302;SDS011;44109;52.398;7.024;2023-05-10T07:41:10;78.85;;;73.03;;
58302;SDS011;44109;52.398;7.024;2023-05-10T07:43:39;59.97;;;56.03;;
58302;SDS011;44109;52.398;7.024;2023-05-10T07:46:06;40.42;;;36.50;;
58302;SDS011;44109;52.398;7.024;2023-05-10T07:48:36;36.20;;;32.80;;
58302;SDS011;44109;52.398;7.024;2023-05-10T07:51:03;37.03;;;33.38;;
58302;SDS011;44109;52.398;7.024;2023-05-10T07:53:33;42.28;;;38.05;;
58302;SDS011;44109;52.398;7.024;2023-05-10T07:56:19;37.47;;;33.83;;
58302;SDS011;44109;52.398;7.024;2023-05-10T07:58:49;32.38;;;27.63;;
58302;SDS011;44109;52.398;7.024;2023-05-10T08:01:17;33.92;;;27.77;;
58302;SDS011;44109;52.398;7.024;2023-05-10T08:03:45;34.50;;;31.58;;
58302;SDS011;44109;52.398;7.024;2023-05-10T08:06:13;36.42;;;33.05;;
58302;SDS011;44109;52.398;7.024;2023-05-10T08:08:43;37.30;;;33.65;;
58302;SDS011;44109;52.398;7.024;2023-05-10T08:11:11;27.55;;;23.35;;
58302;SDS011;44109;52.398;7.024;2023-05-10T08:13:39;28.60;;;20.85;;
58302;SDS011;44109;52.398;7.024;2023-05-10T08:16:06;27.58;;;24.98;;
58302;SDS011;44109;52.398;7.024;2023-05-10T08:18:34;36.45;;;33.28;;
58302;SDS011;44109;52.398;7.024;2023-05-10T08:21:01;36.63;;;33.35;;
58302;SDS011;44109;52.398;7.024;2023-05-10T08:23:29;31.20;;;25.50;;
58302;SDS011;44109;52.398;7.024;2023-05-10T08:25:58;28.10;;;20.70;;
58302;SDS011;44109;52.398;7.024;2023-05-10T08:28:26;26.80;;;19.80;;
58302;SDS011;44109;52.398;7.024;2023-05-10T08:30:54;34.35;;;13.77;;
58302;SDS011;44109;52.398;7.024;2023-05-10T08:33:23;31.15;;;16.05;;
58302;SDS011;44109;52.398;7.024;2023-05-10T08:35:50;29.23;;;18.80;;
58302;SDS011;44109;52.398;7.024;2023-05-10T08:38:18;27.70;;;18.83;;
58302;SDS011;44109;52.398;7.024;2023-05-10T08:40:46;28.63;;;17.33;;
58302;SDS011;44109;52.398;7.024;2023-05-10T08:43:23;26.92;;;15.13;;
58302;SDS011;44109;52.398;7.024;2023-05-10T08:45:54;27.65;;;13.80;;
58302;SDS011;44109;52.398;7.024;2023-05-10T08:48:23;21.95;;;13.32;;
58302;SDS011;44109;52.398;7.024;2023-05-10T08:50:52;25.92;;;15.57;;
58302;SDS011;44109;52.398;7.024;2023-05-10T08:53:24;23.55;;;21.10;;
58302;SDS011;44109;52.398;7.024;2023-05-10T08:55:55;21.15;;;14.55;;
58302;SDS011;44109;52.398;7.024;2023-05-10T08:58:25;26.95;;;14.50;;
58302;SDS011;44109;52.398;7.024;2023-05-10T09:00:53;21.38;;;11.27;;
58302;SDS011;44109;52.398;7.024;2023-05-10T09:03:21;21.63;;;12.88;;
58302;SDS011;44109;52.398;7.024;2023-05-10T09:05:49;24.13;;;10.85;;
58302;SDS011;44109;52.398;7.024;2023-05-10T09:08:16;17.70;;;15.40;;
58302;SDS011;44109;52.398;7.024;2023-05-10T09:10:45;19.90;;;12.80;;
58302;SDS011;44109;52.398;7.024;2023-05-10T09:13:15;20.73;;;8.25;;
58302;SDS011;44109;52.398;7.024;2023-05-10T09:15:49;21.40;;;8.68;;
58302;SDS011;44109;52.398;7.024;2023-05-10T09:18:18;20.75;;;6.90;;
58302;SDS011;44109;52.398;7.024;2023-05-10T09:20:46;12.70;;;5.80;;
58302;SDS011;44109;52.398;7.024;2023-05-10T09:23:13;14.73;;;6.82;;
58302;SDS011;44109;52.398;7.024;2023-05-10T09:25:41;20.40;;;6.45;;
58302;SDS011;44109;52.398;7.024;2023-05-10T09:28:09;18.02;;;7.00;;
58302;SDS011;44109;52.398;7.024;2023-05-10T09:30:38;15.02;;;6.75;;
58302;SDS011;44109;52.398;7.024;2023-05-10T09:33:07;17.27;;;8.52;;
58302;SDS011;44109;52.398;7.024;2023-05-10T09:35:35;15.90;;;7.28;;
58302;SDS011;44109;52.398;7.024;2023-05-10T09:38:06;18.30;;;7.00;;
58302;SDS011;44109;52.398;7.024;2023-05-10T09:40:34;16.25;;;6.32;;
58302;SDS011;44109;52.398;7.024;2023-05-10T09:43:02;15.68;;;7.85;;
58302;SDS011;44109;52.398;7.024;2023-05-10T09:45:36;13.30;;;6.97;;
58302;SDS011;44109;52.398;7.024;2023-05-10T09:48:04;11.82;;;5.18;;
58302;SDS011;44109;52.398;7.024;2023-05-10T09:50:34;12.30;;;6.18;;
58302;SDS011;44109;52.398;7.024;2023-05-10T09:53:01;18.85;;;6.50;;
58302;SDS011;44109;52.398;7.024;2023-05-10T09:55:38;14.18;;;8.07;;
58302;SDS011;44109;52.398;7.024;2023-05-10T09:58:07;11.32;;;6.40;;
58302;SDS011;44109;52.398;7.024;2023-05-10T10:00:36;15.55;;;6.25;;
58302;SDS011;44109;52.398;7.024;2023-05-10T10:03:06;10.18;;;5.30;;
58302;SDS011;44109;52.398;7.024;2023-05-10T10:05:41;12.13;;;4.15;;
58302;SDS011;44109;52.398;7.024;2023-05-10T10:08:10;12.45;;;5.32;;
58302;SDS011;44109;52.398;7.024;2023-05-10T10:10:39;9.43;;;4.53;;
58302;SDS011;44109;52.398;7.024;2023-05-10T10:13:10;8.98;;;4.75;;
58302;SDS011;44109;52.398;7.024;2023-05-10T10:15:38;9.93;;;4.25;;
58302;SDS011;44109;52.398;7.024;2023-05-10T10:18:06;8.15;;;4.40;;
58302;SDS011;44109;52.398;7.024;2023-05-10T10:20:39;11.82;;;4.80;;
58302;SDS011;44109;52.398;7.024;2023-05-10T10:23:09;11.95;;;6.35;;
58302;SDS011;44109;52.398;7.024;2023-05-10T10:25:36;9.57;;;5.15;;
58302;SDS011;44109;52.398;7.024;2023-05-10T10:28:09;9.48;;;4.78;;
58302;SDS011;44109;52.398;7.024;2023-05-10T10:30:50;5.93;;;3.17;;
58302;SDS011;44109;52.398;7.024;2023-05-10T10:33:29;7.75;;;3.15;;
58302;SDS011;44109;52.398;7.024;2023-05-10T10:36:32;9.80;;;3.80;;
58302;SDS011;44109;52.398;7.024;2023-05-10T10:39:07;6.43;;;3.67;;
58302;SDS011;44109;52.398;7.024;2023-05-10T10:41:38;5.43;;;3.25;;
58302;SDS011;44109;52.398;7.024;2023-05-10T10:44:22;9.20;;;3.45;;
58302;SDS011;44109;52.398;7.024;2023-05-10T10:50:05;6.78;;;3.63;;
58302;SDS011;44109;52.398;7.024;2023-05-10T10:52:35;7.13;;;4.13;;
58302;SDS011;44109;52.398;7.024;2023-05-10T10:55:06;7.68;;;3.92;;
58302;SDS011;44109;52.398;7.024;2023-05-10T10:57:42;7.78;;;3.55;;
58302;SDS011;44109;52.398;7.024;2023-05-10T11:00:19;5.70;;;3.50;;
58302;SDS011;44109;52.398;7.024;2023-05-10T11:02:57;7.07;;;3.38;;
58302;SDS011;44109;52.398;7.024;2023-05-10T11:05:34;4.95;;;2.78;;
58302;SDS011;44109;52.398;7.024;2023-05-10T11:08:15;7.90;;;3.40;;
58302;SDS011;44109;52.398;7.024;2023-05-10T11:10:52;6.43;;;2.85;;
58302;SDS011;44109;52.398;7.024;2023-05-10T11:13:34;5.28;;;2.95;;
58302;SDS011;44109;52.398;7.024;2023-05-10T11:16:10;5.13;;;2.70;;
58302;SDS011;44109;52.398;7.024;2023-05-10T11:18:41;5.38;;;2.75;;
58302;SDS011;44109;52.398;7.024;2023-05-10T11:21:28;6.13;;;3.03;;
58302;SDS011;44109;52.398;7.024;2023-05-10T11:23:57;6.97;;;2.42;;
58302;SDS011;44109;52.398;7.024;2023-05-10T11:26:31;4.15;;;2.47;;
58302;SDS011;44109;52.398;7.024;2023-05-10T11:29:01;6.50;;;2.92;;
58302;SDS011;44109;52.398;7.024;2023-05-10T11:31:30;6.18;;;3.03;;
58302;SDS011;44109;52.398;7.024;2023-05-10T11:33:58;4.32;;;1.92;;
58302;SDS011;44109;52.398;7.024;2023-05-10T11:36:28;4.00;;;2.28;;
58302;SDS011;44109;52.398;7.024;2023-05-10T11:39:00;6.15;;;2.58;;
58302;SDS011;44109;52.398;7.024;2023-05-10T11:41:29;5.43;;;2.17;;
58302;SDS011;44109;52.398;7.024;2023-05-10T11:43:58;4.45;;;1.80;;
58302;SDS011;44109;52.398;7.024;2023-05-10T11:46:27;3.55;;;1.63;;
58302;SDS011;44109;52.398;7.024;2023-05-10T11:48:57;5.35;;;2.53;;
58302;SDS011;44109;52.398;7.024;2023-05-10T11:51:32;5.00;;;2.58;;
58302;SDS011;44109;52.398;7.024;2023-05-10T11:54:05;5.03;;;2.38;;
58302;SDS011;44109;52.398;7.024;2023-05-10T11:56:36;3.60;;;2.63;;
58302;SDS011;44109;52.398;7.024;2023-05-10T11:59:04;4.47;;;2.42;;
58302;SDS011;44109;52.398;7.024;2023-05-10T12:01:32;5.30;;;2.13;;
58302;SDS011;44109;52.398;7.024;2023-05-10T12:04:00;4.88;;;1.92;;
58302;SDS011;44109;52.398;7.024;2023-05-10T12:06:30;7.03;;;2.22;;
58302;SDS011;44109;52.398;7.024;2023-05-10T12:09:02;5.05;;;2.33;;
58302;SDS011;44109;52.398;7.024;2023-05-10T12:11:36;5.20;;;2.27;;
58302;SDS011;44109;52.398;7.024;2023-05-10T12:14:07;4.90;;;2.25;;
58302;SDS011;44109;52.398;7.024;2023-05-10T12:16:36;6.25;;;2.53;;
58302;SDS011;44109;52.398;7.024;2023-05-10T12:19:03;4.75;;;2.10;;
58302;SDS011;44109;52.398;7.024;2023-05-10T12:21:32;4.28;;;2.58;;
58302;SDS011;44109;52.398;7.024;2023-05-10T12:24:01;2.75;;;1.65;;
58302;SDS011;44109;52.398;7.024;2023-05-10T12:26:32;2.85;;;1.27;;
58302;SDS011;44109;52.398;7.024;2023-05-10T12:29:14;5.35;;;1.77;;
58302;SDS011;44109;52.398;7.024;2023-05-10T12:31:49;3.20;;;1.50;;
58302;SDS011;44109;52.398;7.024;2023-05-10T12:34:22;2.55;;;1.17;;
58302;SDS011;44109;52.398;7.024;2023-05-10T12:36:53;3.42;;;1.85;;
58302;SDS011;44109;52.398;7.024;2023-05-10T12:39:22;4.82;;;1.58;;
58302;SDS011;44109;52.398;7.024;2023-05-10T12:41:50;3.25;;;1.60;;
58302;SDS011;44109;52.398;7.024;2023-05-10T12:44:19;3.88;;;1.80;;
58302;SDS011;44109;52.398;7.024;2023-05-10T12:46:47;1.80;;;1.02;;
58302;SDS011;44109;52.398;7.024;2023-05-10T12:49:15;1.88;;;0.88;;
58302;SDS011;44109;52.398;7.024;2023-05-10T12:51:44;3.00;;;1.55;;
58302;SDS011;44109;52.398;7.024;2023-05-10T12:54:14;2.75;;;1.15;;
58302;SDS011;44109;52.398;7.024;2023-05-10T12:56:42;7.78;;;2.42;;
58302;SDS011;44109;52.398;7.024;2023-05-10T12:59:10;4.50;;;1.83;;
58302;SDS011;44109;52.398;7.024;2023-05-10T13:01:39;3.53;;;2.10;;
58302;SDS011;44109;52.398;7.024;2023-05-10T13:04:07;4.20;;;1.65;;
58302;SDS011;44109;52.398;7.024;2023-05-10T13:06:34;5.05;;;2.08;;
58302;SDS011;44109;52.398;7.024;2023-05-10T13:09:02;6.13;;;1.63;;
58302;SDS011;44109;52.398;7.024;2023-05-10T13:11:30;4.82;;;1.75;;
58302;SDS011;44109;52.398;7.024;2023-05-10T13:13:58;3.25;;;1.40;;
58302;SDS011;44109;52.398;7.024;2023-05-10T13:16:26;3.10;;;1.80;;
58302;SDS011;44109;52.398;7.024;2023-05-10T13:18:55;3.92;;;1.92;;
58302;SDS011;44109;52.398;7.024;2023-05-10T13:21:22;5.95;;;1.95;;
58302;SDS011;44109;52.398;7.024;2023-05-10T13:23:51;3.22;;;1.73;;
58302;SDS011;44109;52.398;7.024;2023-05-10T13:26:18;4.00;;;1.92;;
58302;SDS011;44109;52.398;7.024;2023-05-10T13:28:47;3.38;;;1.67;;
58302;SDS011;44109;52.398;7.024;2023-05-10T13:31:15;3.25;;;1.75;;
58302;SDS011;44109;52.398;7.024;2023-05-10T13:33:43;4.13;;;1.60;;
58302;SDS011;44109;52.398;7.024;2023-05-10T13:36:12;3.85;;;2.10;;
58302;SDS011;44109;52.398;7.024;2023-05-10T13:38:39;2.97;;;1.55;;
58302;SDS011;44109;52.398;7.024;2023-05-10T13:41:07;2.45;;;1.27;;
58302;SDS011;44109;52.398;7.024;2023-05-10T13:43:34;2.80;;;1.55;;
58302;SDS011;44109;52.398;7.024;2023-05-10T13:46:02;3.17;;;1.70;;
58302;SDS011;44109;52.398;7.024;2023-05-10T13:48:30;6.63;;;2.47;;
58302;SDS011;44109;52.398;7.024;2023-05-10T13:50:58;3.88;;;2.10;;
58302;SDS011;44109;52.398;7.024;2023-05-10T13:53:27;2.67;;;1.65;;
58302;SDS011;44109;52.398;7.024;2023-05-10T13:55:54;3.22;;;1.80;;
58302;SDS011;44109;52.398;7.024;2023-05-10T13:58:22;2.72;;;1.35;;
58302;SDS011;44109;52.398;7.024;2023-05-10T14:00:50;4.13;;;2.40;;
58302;SDS011;44109;52.398;7.024;2023-05-10T14:03:18;3.08;;;2.00;;
58302;SDS011;44109;52.398;7.024;2023-05-10T14:05:45;4.20;;;2.15;;
58302;SDS011;44109;52.398;7.024;2023-05-10T14:08:13;1.80;;;1.25;;
58302;SDS011;44109;52.398;7.024;2023-05-10T14:10:42;5.65;;;1.60;;
58302;SDS011;44109;52.398;7.024;2023-05-10T14:13:09;3.10;;;1.58;;
58302;SDS011;44109;52.398;7.024;2023-05-10T14:15:37;2.65;;;1.73;;
58302;SDS011;44109;52.398;7.024;2023-05-10T14:18:05;4.15;;;2.03;;
58302;SDS011;44109;52.398;7.024;2023-05-10T14:20:33;2.10;;;1.65;;
58302;SDS011;44109;52.398;7.024;2023-05-10T14:23:00;2.22;;;1.65;;
58302;SDS011;44109;52.398;7.024;2023-05-10T14:25:28;3.22;;;1.88;;
58302;SDS011;44109;52.398;7.024;2023-05-10T14:27:57;3.45;;;2.40;;
58302;SDS011;44109;52.398;7.024;2023-05-10T14:30:24;4.97;;;2.80;;
58302;SDS011;44109;52.398;7.024;2023-05-10T14:32:52;3.63;;;2.60;;
58302;SDS011;44109;52.398;7.024;2023-05-10T14:35:21;2.97;;;2.25;;
58302;SDS011;44109;52.398;7.024;2023-05-10T14:37:49;4.53;;;1.95;;
58302;SDS011;44109;52.398;7.024;2023-05-10T14:40:16;4.60;;;2.20;;
58302;SDS011;44109;52.398;7.024;2023-05-10T14:42:44;2.75;;;2.20;;
58302;SDS011;44109;52.398;7.024;2023-05-10T14:45:13;3.30;;;2.33;;
58302;SDS011;44109;52.398;7.024;2023-05-10T14:47:41;2.63;;;1.65;;
58302;SDS011;44109;52.398;7.024;2023-05-10T14:50:08;3.30;;;2.45;;
58302;SDS011;44109;52.398;7.024;2023-05-10T14:52:37;2.88;;;2.03;;
58302;SDS011;44109;52.398;7.024;2023-05-10T14:55:05;3.33;;;1.90;;
58302;SDS011;44109;52.398;7.024;2023-05-10T14:57:34;3.83;;;2.30;;
58302;SDS011;44109;52.398;7.024;2023-05-10T15:00:01;4.82;;;2.08;;